Time;durP1;ratioP1;P1;durP2;ratioP2;P2;SDS_P1;SDS_P2;PMS_P1;PMS_P2;Temp;Humidity;BMP_temperature;BMP_pressure;BME280_temperature;BME280_humidity;BME280_pressure;Samples;Min_cycle;Max_cycle;Signal;HPM_P1;HPM_P2
2023/09/15 15:52:22;;;;;;;1.63;1.47;;;20.50;95.30;;;;;;5079509;27;20748;-59
2023/09/15 15:54:48;;;;;;;11.30;2.60;;;20.60;97.20;;;;;;5068331;28;20545;-60
2023/09/15 15:57:14;;;;;;;0.67;0.67;;;20.60;96.40;;;;;;5067769;28;20892;-59
2023/09/15 15:59:40;;;;;;;1.53;1.43;;;20.60;96.70;;;;;;5067514;28;20697;-59
2023/09/15 16:02:12;;;;;;;1.83;1.20;;;20.60;97.20;;;;;;5067680;28;20796;-59
2023/09/15 16:04:41;;;;;;;1.30;1.20;;;20.60;97.30;;;;;;5066291;28;20428;-59
2023/09/15 16:07:06;;;;;;;1.60;1.50;;;20.50;97.70;;;;;;5066194;28;20495;-59
2023/09/15 16:09:32;;;;;;;1.33;1.23;;;20.50;98.10;;;;;;5066407;28;20498;-59
2023/09/15 16:11:59;;;;;;;1.30;1.20;;;20.50;98.10;;;;;;5066268;28;20286;-59
2023/09/15 16:14:25;;;;;;;1.57;1.47;;;20.50;98.80;;;;;;5066445;28;20633;-59
2023/09/15 16:16:51;;;;;;;1.90;1.80;;;20.50;98.60;;;;;;5066330;28;20397;-59
2023/09/15 16:19:16;;;;;;;1.80;1.70;;;20.40;99.00;;;;;;5068279;28;20408;-58
2023/09/15 16:21:42;;;;;;;2.23;2.13;;;20.40;99.40;;;;;;5068188;28;20409;-58
2023/09/15 16:24:08;;;;;;;2.40;2.20;;;20.30;99.60;;;;;;5068062;28;20198;-59
2023/09/15 16:26:34;;;;;;;2.10;2.00;;;20.20;99.90;;;;;;5068005;28;20205;-57
2023/09/15 16:29:00;;;;;;;3.70;2.20;;;20.20;99.90;;;;;;5068006;28;20176;-58
2023/09/15 16:31:26;;;;;;;1.10;1.00;;;20.10;99.90;;;;;;5067493;28;20451;-58
2023/09/15 16:33:52;;;;;;;2.00;1.60;;;20.10;99.90;;;;;;5067527;28;20489;-58
2023/09/15 16:36:18;;;;;;;2.60;1.90;;;20.20;99.90;;;;;;5067491;28;20715;-57
2023/09/15 16:38:43;;;;;;;2.10;1.60;;;20.20;99.90;;;;;;5067904;28;20565;-58
2023/09/15 16:41:09;;;;;;;3.73;1.57;;;20.20;99.90;;;;;;5067871;28;20212;-58
2023/09/15 16:43:36;;;;;;;2.73;1.97;;;20.10;99.90;;;;;;5067700;28;20236;-59
2023/09/15 16:46:02;;;;;;;1.60;1.50;;;20.00;99.90;;;;;;5067404;28;20178;-58
2023/09/15 16:48:31;;;;;;;0.97;0.97;;;20.00;99.90;;;;;;5067704;28;20420;-58
2023/09/15 16:50:57;;;;;;;2.20;1.90;;;19.90;99.90;;;;;;5067349;28;20459;-59
2023/09/15 16:53:23;;;;;;;2.07;1.67;;;19.90;99.90;;;;;;5067701;28;20768;-58
2023/09/15 16:55:51;;;;;;;1.67;1.20;;;19.80;99.90;;;;;;5067085;28;20409;-58
2023/09/15 16:58:17;;;;;;;1.87;1.77;;;19.80;99.90;;;;;;5067366;28;20162;-57
2023/09/15 17:00:44;;;;;;;2.37;2.17;;;19.90;99.90;;;;;;5067479;28;20408;-59
2023/09/15 17:05:38;;;;;;;3.83;1.87;;;19.90;99.90;;;;;;5009710;28;20528;-62
2023/09/15 17:08:05;;;;;;;1.50;1.40;;;19.90;99.90;;;;;;5014538;28;20406;-62
2023/09/15 17:10:35;;;;;;;6.10;2.10;;;19.80;99.90;;;;;;5014146;28;20465;-61
2023/09/15 17:13:02;;;;;;;1.33;1.23;;;19.80;99.90;;;;;;5013064;28;20469;-60
2023/09/15 17:15:29;;;;;;;2.57;2.37;;;19.80;99.90;;;;;;5013880;28;20437;-60
2023/09/15 17:17:55;;;;;;;3.10;1.90;;;19.80;99.90;;;;;;5013969;28;20402;-60
2023/09/15 17:20:21;;;;;;;2.30;2.10;;;19.70;99.90;;;;;;5014208;28;20438;-60
2023/09/15 17:22:46;;;;;;;3.93;3.53;;;19.60;99.90;;;;;;5013972;28;20414;-63
2023/09/15 17:25:13;;;;;;;4.97;3.00;;;;;;;;;;5013677;28;20751;-61
2023/09/15 17:27:45;;;;;;;2.07;1.87;;;19.60;99.90;;;;;;5013577;28;20183;-64
2023/09/15 17:30:13;;;;;;;2.60;1.57;;;19.40;99.90;;;;;;5012563;28;20548;-63
2023/09/15 17:32:39;;;;;;;2.43;1.80;;;19.40;99.90;;;;;;5012502;28;20421;-63
2023/09/15 17:35:05;;;;;;;2.97;2.10;;;19.30;99.90;;;;;;5011760;28;20449;-64
2023/09/15 17:37:33;;;;;;;1.10;1.00;;;19.30;99.90;;;;;;4994805;28;20782;-64
2023/09/15 17:40:02;;;;;;;2.80;2.50;;;18.90;99.90;;;;;;5013161;28;20541;-64
2023/09/15 17:42:29;;;;;;;2.50;2.30;;;19.00;99.90;;;;;;5012826;28;20931;-65
2023/09/15 17:44:55;;;;;;;4.33;2.67;;;19.00;99.90;;;;;;5013546;28;20431;-66
2023/09/15 17:47:21;;;;;;;4.00;2.20;;;18.90;99.90;;;;;;5012023;28;20400;-64
2023/09/15 17:50:05;;;;;;;2.00;1.60;;;18.90;99.90;;;;;;5013787;28;20801;-64
2023/09/15 17:52:32;;;;;;;5.70;3.47;;;18.80;99.90;;;;;;5013799;28;20188;-64
2023/09/15 17:54:58;;;;;;;3.10;2.10;;;18.60;99.90;;;;;;5013270;28;20446;-64
2023/09/15 17:57:24;;;;;;;2.20;2.07;;;18.70;99.90;;;;;;5013062;28;20494;-64
2023/09/15 17:59:50;;;;;;;2.10;1.63;;;;;;;;;;5013344;28;20576;-63
2023/09/15 18:02:17;;;;;;;1.90;1.80;;;;;;;;;;5013025;28;20411;-63
2023/09/15 18:04:43;;;;;;;2.00;1.80;;;18.30;99.90;;;;;;5013273;28;20500;-64
2023/09/15 18:07:09;;;;;;;2.93;1.60;;;18.30;99.90;;;;;;5012905;28;20416;-63
2023/09/15 18:09:35;;;;;;;1.70;1.60;;;18.20;99.90;;;;;;5013355;28;20182;-64
2023/09/15 18:12:02;;;;;;;1.60;1.47;;;18.20;99.90;;;;;;5013176;28;20237;-64
2023/09/15 18:14:27;;;;;;;1.37;1.37;;;18.10;99.90;;;;;;5011860;28;20427;-64
2023/09/15 18:16:53;;;;;;;1.33;1.23;;;18.10;99.90;;;;;;5006802;28;20418;-64
2023/09/15 18:19:19;;;;;;;2.07;1.90;;;18.10;99.90;;;;;;5002117;28;20231;-64
2023/09/15 18:21:44;;;;;;;2.90;1.50;;;18.00;99.90;;;;;;5003573;28;20176;-63
2023/09/15 18:24:10;;;;;;;2.13;2.03;;;;;;;;;;5003088;28;20212;-64
2023/09/15 18:26:36;;;;;;;2.00;1.80;;;17.80;99.90;;;;;;5001457;28;20188;-63
2023/09/15 18:29:03;;;;;;;2.83;2.60;;;17.50;99.90;;;;;;5003965;28;20455;-64
2023/09/15 18:31:29;;;;;;;3.60;2.63;;;;;;;;;;4999762;28;20612;-63
2023/09/15 18:33:56;;;;;;;1.30;1.20;;;;;;;;;;4995781;28;20773;-63
2023/09/15 18:36:23;;;;;;;2.27;1.50;;;17.30;99.90;;;;;;5003021;28;20449;-64
2023/09/15 18:38:50;;;;;;;1.17;1.07;;;17.20;99.90;;;;;;5003137;28;20923;-64
2023/09/15 18:41:16;;;;;;;2.97;2.73;;;17.50;99.90;;;;;;4998414;28;20921;-64
2023/09/15 18:43:42;;;;;;;3.67;2.50;;;17.60;99.90;;;;;;4997861;28;20439;-64
2023/09/15 18:46:08;;;;;;;1.77;1.67;;;17.40;99.90;;;;;;4992750;28;20430;-64
2023/09/15 18:48:35;;;;;;;1.47;1.23;;;17.30;99.90;;;;;;4993138;28;20413;-64
2023/09/15 18:51:01;;;;;;;2.50;2.00;;;17.40;99.90;;;;;;4992639;28;20658;-64
2023/09/15 18:53:26;;;;;;;3.13;2.83;;;17.30;99.90;;;;;;4992844;28;20419;-63
2023/09/15 18:55:52;;;;;;;1.93;1.83;;;17.20;99.90;;;;;;4992600;28;20297;-64
2023/09/15 18:58:18;;;;;;;3.70;3.30;;;17.20;99.90;;;;;;4992821;28;20178;-64
2023/09/15 19:00:44;;;;;;;1.37;1.27;;;17.20;99.90;;;;;;4993112;28;20544;-64
2023/09/15 19:03:10;;;;;;;3.60;2.50;;;17.20;99.90;;;;;;4992970;28;20176;-64
2023/09/15 19:05:36;;;;;;;3.27;1.73;;;17.30;99.90;;;;;;4992379;28;20815;-65
2023/09/15 19:08:03;;;;;;;3.20;2.50;;;17.30;99.90;;;;;;4992798;28;20169;-64
2023/09/15 19:10:30;;;;;;;1.77;1.67;;;17.20;99.90;;;;;;4992557;28;20834;-64
2023/09/15 19:12:56;;;;;;;1.60;1.50;;;17.10;99.90;;;;;;4992767;28;20459;-64
2023/09/15 19:15:22;;;;;;;2.33;1.97;;;17.10;99.90;;;;;;4992391;28;20427;-64
2023/09/15 19:17:47;;;;;;;2.73;2.43;;;17.10;99.90;;;;;;4992732;28;20490;-64
2023/09/15 19:20:13;;;;;;;2.93;1.70;;;17.00;99.90;;;;;;4992622;28;20168;-63
2023/09/15 19:22:39;;;;;;;2.50;2.30;;;16.90;99.90;;;;;;4992573;28;20176;-64
2023/09/15 19:25:05;;;;;;;1.40;1.23;;;16.80;99.90;;;;;;4991846;28;20318;-64
2023/09/15 19:27:32;;;;;;;2.60;1.27;;;16.80;99.90;;;;;;4992405;28;20918;-64
2023/09/15 19:29:58;;;;;;;2.27;2.07;;;16.80;99.90;;;;;;4992197;28;20171;-64
2023/09/15 19:32:25;;;;;;;2.10;2.00;;;16.90;99.90;;;;;;4991840;28;20501;-63
2023/09/15 19:34:51;;;;;;;2.87;2.60;;;16.80;99.90;;;;;;4991128;28;20184;-64
2023/09/15 19:37:18;;;;;;;3.60;3.00;;;16.70;99.90;;;;;;4991052;28;20399;-64
2023/09/15 19:39:44;;;;;;;2.17;2.03;;;16.70;99.90;;;;;;4991506;28;20443;-64
2023/09/15 19:42:10;;;;;;;3.77;2.23;;;16.70;99.90;;;;;;4991970;28;20550;-64
2023/09/15 19:44:36;;;;;;;2.10;1.83;;;16.70;99.90;;;;;;4991134;28;20906;-64
2023/09/15 19:47:01;;;;;;;1.23;1.13;;;16.70;99.90;;;;;;4991876;28;20195;-63
2023/09/15 19:49:27;;;;;;;2.40;2.23;;;16.60;99.90;;;;;;4992218;28;20187;-64
2023/09/15 19:51:52;;;;;;;2.90;2.50;;;16.60;99.90;;;;;;4991640;28;20208;-64
2023/09/15 19:54:20;;;;;;;3.00;2.30;;;16.50;99.90;;;;;;4991891;28;20189;-64
2023/09/15 19:56:48;;;;;;;3.03;2.37;;;16.60;99.90;;;;;;4992056;28;20183;-64
2023/09/15 19:59:13;;;;;;;1.77;1.50;;;16.60;99.90;;;;;;4974378;28;20450;-63
2023/09/15 20:01:39;;;;;;;3.37;2.03;;;16.50;99.90;;;;;;4992047;28;20415;-64
2023/09/15 20:04:05;;;;;;;2.20;1.07;;;16.50;99.90;;;;;;4991484;28;20207;-64
2023/09/15 20:06:30;;;;;;;3.07;2.33;;;16.50;99.90;;;;;;4991005;28;20216;-64
2023/09/15 20:08:58;;;;;;;2.00;1.90;;;16.50;99.90;;;;;;4992141;28;20246;-63
2023/09/15 20:11:24;;;;;;;3.83;2.50;;;16.50;99.90;;;;;;4991508;28;20218;-64
2023/09/15 20:13:50;;;;;;;1.80;1.70;;;16.50;99.90;;;;;;4991687;28;20513;-63
2023/09/15 20:16:17;;;;;;;3.13;2.93;;;16.50;99.90;;;;;;4991669;28;20311;-64
2023/09/15 20:18:43;;;;;;;6.53;2.00;;;16.50;99.90;;;;;;4991757;28;20259;-64
2023/09/15 20:21:10;;;;;;;2.67;2.27;;;16.40;99.90;;;;;;4991369;28;20443;-63
2023/09/15 20:23:38;;;;;;;1.83;1.73;;;16.30;99.90;;;;;;4990721;28;20674;-64
2023/09/15 20:26:06;;;;;;;3.17;2.70;;;16.30;99.90;;;;;;4990521;28;20461;-64
2023/09/15 20:28:32;;;;;;;2.30;1.47;;;16.30;99.90;;;;;;4991141;28;20415;-64
2023/09/15 20:30:58;;;;;;;2.60;2.40;;;16.20;99.90;;;;;;4991290;28;20451;-63
2023/09/15 20:33:24;;;;;;;2.47;2.20;;;16.30;99.90;;;;;;4991260;28;20172;-64
2023/09/15 20:35:49;;;;;;;1.83;1.67;;;16.30;99.90;;;;;;4990922;28;20168;-64
2023/09/15 20:38:15;;;;;;;3.60;2.40;;;16.20;99.90;;;;;;4993750;28;20495;-64
2023/09/15 20:40:43;;;;;;;3.23;1.80;;;16.20;99.90;;;;;;4995437;28;20260;-64
2023/09/15 20:43:09;;;;;;;1.80;1.70;;;16.20;99.90;;;;;;4995342;28;20180;-64
2023/09/15 20:45:35;;;;;;;3.03;2.33;;;16.30;99.90;;;;;;4994836;28;20419;-64
2023/09/15 20:48:01;;;;;;;1.30;1.20;;;16.30;99.90;;;;;;4994478;28;20439;-64
2023/09/15 20:50:28;;;;;;;2.90;2.70;;;16.30;99.90;;;;;;4995066;28;20446;-64
2023/09/15 20:52:54;;;;;;;3.13;2.03;;;16.40;99.90;;;;;;4995028;28;20950;-64
2023/09/15 20:55:21;;;;;;;3.13;1.70;;;16.40;99.90;;;;;;4994899;28;20431;-64
2023/09/15 20:57:47;;;;;;;2.40;2.20;;;16.40;99.90;;;;;;4995414;28;20172;-64
2023/09/15 21:00:13;;;;;;;3.97;2.63;;;16.30;99.90;;;;;;4995266;28;20418;-64
2023/09/15 21:02:42;;;;;;;3.43;1.60;;;16.30;99.90;;;;;;4994985;28;20498;-64
2023/09/15 21:05:13;;;;;;;2.10;1.73;;;16.30;99.90;;;;;;4994436;28;20443;-64
2023/09/15 21:07:40;;;;;;;3.13;2.50;;;16.30;99.90;;;;;;4995158;28;20431;-64
2023/09/15 21:10:06;;;;;;;2.23;1.77;;;16.30;99.90;;;;;;4994943;28;20407;-64
2023/09/15 21:12:32;;;;;;;2.30;1.57;;;16.40;99.90;;;;;;4994998;28;20494;-64
2023/09/15 21:14:57;;;;;;;1.50;1.40;;;16.20;99.90;;;;;;4994614;28;20455;-64
2023/09/15 21:17:23;;;;;;;2.13;1.93;;;16.20;99.90;;;;;;4994726;28;20176;-64
2023/09/15 21:19:49;;;;;;;3.80;2.20;;;16.10;99.90;;;;;;4994641;28;20940;-63
2023/09/15 21:22:15;;;;;;;3.40;3.10;;;16.20;99.90;;;;;;4993928;28;20415;-64
2023/09/15 21:24:40;;;;;;;1.63;1.47;;;16.10;99.90;;;;;;4994612;28;20204;-64
2023/09/15 21:27:06;;;;;;;4.30;4.00;;;16.20;99.90;;;;;;4994412;28;20472;-64
2023/09/15 21:29:31;;;;;;;1.63;1.37;;;16.10;99.90;;;;;;4994654;28;20185;-64
2023/09/15 21:31:57;;;;;;;2.10;2.00;;;16.00;99.90;;;;;;4994522;28;20294;-64
2023/09/15 21:34:23;;;;;;;2.33;2.17;;;16.00;99.90;;;;;;4994336;28;20193;-64
2023/09/15 21:36:48;;;;;;;3.93;2.07;;;15.90;99.90;;;;;;4993909;28;20192;-64
2023/09/15 21:39:15;;;;;;;2.00;1.47;;;16.00;99.90;;;;;;4994247;28;20179;-64
2023/09/15 21:41:41;;;;;;;2.50;2.30;;;16.00;99.90;;;;;;4994511;28;20184;-64
2023/09/15 21:44:07;;;;;;;1.87;1.77;;;16.00;99.90;;;;;;4994289;28;20431;-63
2023/09/15 21:46:33;;;;;;;2.00;1.70;;;16.00;99.90;;;;;;4994026;28;20838;-63
2023/09/15 21:48:59;;;;;;;3.50;2.87;;;16.10;99.90;;;;;;4994059;28;20541;-64
2023/09/15 21:51:25;;;;;;;5.77;2.20;;;16.10;99.90;;;;;;4994127;28;20450;-64
2023/09/15 21:53:50;;;;;;;2.83;2.30;;;16.20;99.90;;;;;;4994183;28;20596;-63
2023/09/15 21:56:16;;;;;;;3.20;2.47;;;16.10;99.90;;;;;;4993886;28;20172;-64
2023/09/15 21:58:41;;;;;;;2.60;2.40;;;16.00;99.90;;;;;;4994091;28;20173;-64
2023/09/15 22:01:07;;;;;;;3.17;2.57;;;15.90;99.90;;;;;;4994035;28;20172;-63
2023/09/15 22:03:33;;;;;;;1.70;1.60;;;15.80;99.90;;;;;;4993647;28;20207;-64
2023/09/15 22:05:58;;;;;;;3.13;2.93;;;15.90;99.90;;;;;;4993735;28;20258;-64
2023/09/15 22:08:24;;;;;;;6.80;2.33;;;15.90;99.90;;;;;;4993893;28;20259;-64
2023/09/15 22:10:50;;;;;;;8.17;3.83;;;15.80;99.90;;;;;;4993794;28;20192;-64
2023/09/15 22:13:19;;;;;;;2.33;1.73;;;15.80;99.90;;;;;;4993411;28;20199;-64
2023/09/15 22:15:45;;;;;;;3.17;2.63;;;15.80;99.90;;;;;;4993542;28;20606;-64
2023/09/15 22:18:13;;;;;;;3.23;2.77;;;15.90;99.90;;;;;;4993711;28;20438;-64
2023/09/15 22:20:39;;;;;;;3.00;1.80;;;15.90;99.90;;;;;;4993796;28;20203;-64
2023/09/15 22:23:05;;;;;;;2.73;2.33;;;15.90;99.90;;;;;;4993637;28;20809;-64
2023/09/15 22:25:31;;;;;;;2.20;2.00;;;15.80;99.90;;;;;;4993339;28;20434;-64
2023/09/15 22:27:58;;;;;;;2.20;2.00;;;15.90;99.90;;;;;;4993502;28;20788;-64
2023/09/15 22:30:24;;;;;;;3.67;3.47;;;15.90;99.90;;;;;;4993322;28;20184;-63
2023/09/15 22:32:51;;;;;;;2.40;2.20;;;16.00;99.90;;;;;;4993414;28;20440;-64
2023/09/15 22:35:17;;;;;;;2.57;2.47;;;16.00;99.90;;;;;;4993155;28;20519;-64
2023/09/15 22:37:46;;;;;;;3.20;2.10;;;16.10;99.90;;;;;;4993296;28;20454;-64
2023/09/15 22:40:12;;;;;;;4.73;2.73;;;16.00;99.90;;;;;;4993283;28;20184;-64
2023/09/15 22:42:39;;;;;;;2.93;2.50;;;16.00;99.90;;;;;;4993240;28;20414;-64
2023/09/15 22:45:17;;;;;;;3.40;1.90;;;16.00;99.90;;;;;;4992763;28;20554;-64
2023/09/15 22:47:49;;;;;;;3.60;2.30;;;16.00;99.90;;;;;;4993098;28;20550;-64
2023/09/15 22:50:17;;;;;;;2.43;2.07;;;15.90;99.90;;;;;;4993468;28;20408;-64
2023/09/15 22:52:44;;;;;;;4.93;4.27;;;15.80;99.90;;;;;;4992850;28;20422;-64
2023/09/15 22:55:11;;;;;;;2.60;1.77;;;15.80;99.90;;;;;;4992605;28;20945;-64
2023/09/15 22:57:39;;;;;;;3.60;2.20;;;15.80;99.90;;;;;;4992850;28;20411;-64
2023/09/15 23:00:12;;;;;;;4.93;2.03;;;15.70;99.90;;;;;;4992411;28;20824;-63
2023/09/15 23:02:41;;;;;;;6.50;3.20;;;15.80;99.90;;;;;;4993157;28;20622;-64
2023/09/15 23:05:08;;;;;;;5.87;3.70;;;15.70;99.90;;;;;;5074455;23;20490;-63
2023/09/15 23:07:35;;;;;;;2.87;2.27;;;15.70;99.90;;;;;;5091160;28;20444;-63
2023/09/15 23:10:01;;;;;;;5.07;2.90;;;15.70;99.90;;;;;;5091505;28;20445;-64
2023/09/15 23:12:27;;;;;;;2.53;2.30;;;15.70;99.90;;;;;;5091921;28;20447;-64
2023/09/15 23:14:53;;;;;;;5.23;3.37;;;15.80;99.90;;;;;;5091757;28;20954;-66
2023/09/15 23:17:19;;;;;;;4.37;2.63;;;15.80;99.90;;;;;;5091898;28;20485;-63
2023/09/15 23:19:44;;;;;;;1.80;1.70;;;15.70;99.90;;;;;;5091840;28;20357;-64
2023/09/15 23:22:10;;;;;;;2.60;2.40;;;15.60;99.90;;;;;;5092171;28;20669;-64
2023/09/15 23:24:35;;;;;;;2.73;2.53;;;15.60;99.90;;;;;;5092313;28;20191;-63
2023/09/15 23:27:07;;;;;;;2.93;2.10;;;15.60;99.90;;;;;;5091494;28;20218;-63
2023/09/15 23:29:33;;;;;;;2.87;1.80;;;15.60;99.90;;;;;;5092054;28;20605;-64
2023/09/15 23:31:59;;;;;;;1.60;1.50;;;15.60;99.90;;;;;;5091874;28;20546;-63
2023/09/15 23:34:25;;;;;;;2.73;2.00;;;15.50;99.90;;;;;;5091502;28;20426;-64
2023/09/15 23:36:50;;;;;;;3.77;2.33;;;15.60;99.90;;;;;;5091321;28;20175;-64
2023/09/15 23:39:17;;;;;;;2.07;1.90;;;15.60;99.90;;;;;;5091605;28;20492;-63
2023/09/15 23:41:44;;;;;;;2.00;1.80;;;15.50;99.90;;;;;;5091803;28;20180;-64
2023/09/15 23:44:10;;;;;;;2.20;1.90;;;15.50;99.90;;;;;;5091537;28;20441;-63
2023/09/15 23:46:36;;;;;;;1.97;1.47;;;15.50;99.90;;;;;;5091283;28;20473;-63
2023/09/15 23:49:03;;;;;;;2.93;2.63;;;15.50;99.90;;;;;;5091485;28;20403;-63
2023/09/15 23:51:28;;;;;;;4.50;2.53;;;15.50;99.90;;;;;;5091353;28;20579;-64
2023/09/15 23:53:54;;;;;;;2.73;2.53;;;15.50;99.90;;;;;;5091289;28;20514;-63
2023/09/15 23:56:20;;;;;;;2.83;2.63;;;15.60;99.90;;;;;;5091139;28;20168;-64
2023/09/15 23:58:45;;;;;;;2.60;2.40;;;15.70;99.90;;;;;;5091503;28;20169;-63
